Time;durP1;ratioP1;P1;durP2;ratioP2;P2;SDS_P1;SDS_P2;PMS_P1;PMS_P2;Temp;Humidity;BMP_temperature;BMP_pressure;BME280_temperature;BME280_humidity;BME280_pressure;Samples;Min_cycle;Max_cycle;Signal;HPM_P1;HPM_P2
2023/05/04 00:00:04;;;;;;;15.10;5.63;;;;;;;-144.73;100.00;54292.75;5054773;28;20024;-71
2023/05/04 00:02:30;;;;;;;21.88;5.57;;;;;;;-144.73;100.00;54278.41;5071245;28;20041;-71
2023/05/04 00:04:55;;;;;;;21.98;5.82;;;;;;;-144.73;100.00;54288.66;5072662;28;20027;-71
2023/05/04 00:07:21;;;;;;;26.75;6.00;;;;;;;-144.73;100.00;54292.75;5054197;28;20080;-72
2023/05/04 00:09:48;;;;;;;19.38;6.05;;;;;;;-144.73;100.00;54313.28;5071850;28;20016;-71
2023/05/04 00:12:14;;;;;;;19.50;5.22;;;;;;;-144.73;100.00;54315.34;5071606;28;20047;-71
2023/05/04 00:14:39;;;;;;;30.27;7.60;;;;;;;-144.73;100.00;54257.88;5053508;28;20482;-70
2023/05/04 00:17:06;;;;;;;21.15;7.88;;;;;;;-144.73;100.00;54276.34;5071265;28;20035;-71
2023/05/04 00:19:33;;;;;;;27.52;7.18;;;;;;;-144.73;100.00;54247.59;5081895;28;20012;-71
2023/05/04 00:21:59;;;;;;;24.02;6.32;;;;;;;-144.73;100.00;54276.34;5071158;28;20409;-70
2023/05/04 00:24:24;;;;;;;16.92;5.90;;;;;;;-144.73;100.00;54294.81;5071153;28;20012;-71
2023/05/04 00:26:50;;;;;;;18.08;5.68;;;;;;;-144.73;100.00;54288.66;5071801;28;20028;-71
2023/05/04 00:29:15;;;;;;;17.00;5.70;;;;;;;-144.73;100.00;54239.41;5054232;28;20775;-71
2023/05/04 00:31:40;;;;;;;21.98;5.75;;;;;;;-144.73;100.00;54292.75;5070895;28;20556;-72
2023/05/04 00:34:06;;;;;;;14.60;6.22;;;;;;;-144.73;100.00;54300.97;5072060;28;20039;-72
2023/05/04 00:36:31;;;;;;;18.15;6.72;;;;;;;-144.73;100.00;54292.75;5053364;28;20047;-72
2023/05/04 00:38:56;;;;;;;20.30;6.05;;;;;;;-144.73;100.00;54292.75;5071527;28;20056;-72
2023/05/04 00:41:22;;;;;;;20.10;5.95;;;;;;;-144.73;100.00;54303.03;5049858;28;20084;-72
2023/05/04 00:43:48;;;;;;;20.35;7.03;;;;;;;-144.73;100.00;54300.97;5053679;28;20024;-72
2023/05/04 00:46:14;;;;;;;18.45;5.95;;;;;;;-144.73;100.00;54313.28;5052460;28;20491;-72
2023/05/04 00:48:45;;;;;;;11.85;5.88;;;;;;;-144.73;100.00;54280.44;5053368;28;20024;-72
2023/05/04 00:51:13;;;;;;;27.73;6.38;;;;;;;-144.73;100.00;54259.91;5049867;28;20037;-72
2023/05/04 00:53:39;;;;;;;17.70;6.35;;;;;;;-144.73;100.00;54298.91;5071555;28;20039;-72
2023/05/04 00:56:05;;;;;;;18.73;6.15;;;;;;;-144.73;100.00;54309.19;5053223;28;20024;-72
2023/05/04 00:58:31;;;;;;;23.23;6.35;;;;;;;-144.73;100.00;54300.97;5070912;28;20021;-71
2023/05/04 01:00:57;;;;;;;12.60;5.40;;;;;;;-144.73;100.00;54241.44;5070740;28;20050;-71
2023/05/04 01:03:23;;;;;;;20.98;7.05;;;;;;;-144.73;100.00;54284.56;5070726;28;20101;-71
2023/05/04 01:06:06;;;;;;;19.38;5.97;;;;;;;-144.73;100.00;54251.72;5049429;28;20028;-71
2023/05/04 01:08:39;;;;;;;20.25;6.13;;;;;;;-144.73;100.00;54305.06;5052237;28;20017;-71
2023/05/04 01:11:18;;;;;;;21.80;6.72;;;;;;;-144.73;100.00;54309.19;5073845;28;20025;-71
2023/05/04 01:13:45;;;;;;;19.17;6.75;;;;;;;-144.73;100.00;54321.50;5053513;28;20149;-71
2023/05/04 01:16:12;;;;;;;16.80;6.43;;;;;;;-144.73;100.00;54298.91;5053287;28;20040;-72
2023/05/04 01:18:37;;;;;;;17.98;6.10;;;;;;;-144.73;100.00;54321.50;5053007;28;20031;-71
2023/05/04 01:24:43;;;;;;;21.67;7.00;;;;;;;-144.73;100.00;54317.38;5066347;28;20289;-71
2023/05/04 01:27:17;;;;;;;20.08;7.75;;;;;;;-144.73;100.00;54276.34;5069786;28;20493;-71
2023/05/04 01:30:06;;;;;;;11.98;5.43;;;;;;;-144.73;100.00;54313.28;5052231;28;20104;-71
2023/05/04 01:32:33;;;;;;;16.10;6.25;;;;;;;-144.73;100.00;54264.03;5078387;28;20033;-71
2023/05/04 01:34:59;;;;;;;18.27;6.15;;;;;;;-144.73;100.00;54296.88;5081661;28;20024;-71
2023/05/04 01:37:24;;;;;;;16.20;6.20;;;;;;;-144.73;100.00;54292.75;5051979;28;20594;-70
2023/05/04 01:39:50;;;;;;;31.95;7.97;;;;;;;-144.73;100.00;54280.44;5070032;28;20047;-71
2023/05/04 01:42:15;;;;;;;21.50;7.38;;;;;;;-144.73;100.00;54317.38;5070105;28;20036;-71
2023/05/04 01:44:40;;;;;;;21.23;6.45;;;;;;;-144.73;100.00;54309.19;5070139;28;20028;-71
2023/05/04 01:47:06;;;;;;;13.35;5.47;;;;;;;-144.73;100.00;54305.06;5069564;28;20086;-72
2023/05/04 01:49:31;;;;;;;21.52;6.57;;;;;;;-144.73;100.00;54300.97;5051537;28;20390;-71
2023/05/04 01:51:57;;;;;;;23.20;6.72;;;;;;;-144.73;100.00;54300.97;5068916;28;20051;-70
2023/05/04 01:54:22;;;;;;;30.05;7.45;;;;;;;-144.73;100.00;54305.06;5051840;28;20039;-71
2023/05/04 01:56:48;;;;;;;18.60;6.70;;;;;;;-144.73;100.00;54300.97;5052121;28;20029;-71
2023/05/04 01:59:14;;;;;;;24.63;6.72;;;;;;;-144.73;100.00;54309.19;5070210;28;20024;-71
2023/05/04 02:01:40;;;;;;;31.95;7.10;;;;;;;-144.73;100.00;54292.75;5069273;28;20505;-71
2023/05/04 02:04:06;;;;;;;21.13;6.93;;;;;;;-144.73;100.00;54280.44;5070214;28;20353;-71
2023/05/04 02:06:31;;;;;;;17.45;7.70;;;;;;;-144.73;100.00;54286.59;5051719;28;20036;-71
2023/05/04 02:08:57;;;;;;;20.63;6.90;;;;;;;-144.73;100.00;54325.59;5069898;28;20113;-71
2023/05/04 02:11:22;;;;;;;20.75;7.72;;;;;;;-144.73;100.00;54296.88;5068437;28;20158;-71
2023/05/04 02:13:47;;;;;;;17.65;5.78;;;;;;;-144.73;100.00;54313.28;5052288;28;20081;-71
2023/05/04 02:16:13;;;;;;;16.77;6.90;;;;;;;-144.73;100.00;54235.28;5069474;28;20100;-71
2023/05/04 02:18:38;;;;;;;16.20;6.43;;;;;;;-144.73;100.00;54300.97;5051697;28;20032;-72
2023/05/04 02:21:03;;;;;;;24.15;6.35;;;;;;;-144.73;100.00;54319.44;5069587;28;20035;-71
2023/05/04 02:23:29;;;;;;;20.27;6.60;;;;;;;-144.73;100.00;54290.72;5047736;28;20030;-71
2023/05/04 02:25:55;;;;;;;23.83;7.47;;;;;;;-144.73;100.00;54321.50;5078038;28;20033;-71
2023/05/04 02:28:20;;;;;;;23.80;7.07;;;;;;;-144.73;100.00;54325.59;5069760;28;20019;-71
2023/05/04 02:30:46;;;;;;;30.00;7.88;;;;;;;-144.73;100.00;54288.66;5068870;28;20419;-71
2023/05/04 02:33:11;;;;;;;23.77;7.00;;;;;;;-144.73;100.00;54276.34;5052292;28;20024;-71
2023/05/04 02:35:36;;;;;;;25.80;6.75;;;;;;;-144.73;100.00;54276.34;5069236;28;20021;-70
2023/05/04 02:38:02;;;;;;;19.52;6.47;;;;;;;-144.73;100.00;54317.38;5069375;28;20021;-71
2023/05/04 02:40:27;;;;;;;15.25;6.43;;;;;;;-144.73;100.00;54284.56;5051009;28;20024;-70
2023/05/04 02:42:53;;;;;;;19.85;7.20;;;;;;;-144.73;100.00;54305.06;5047357;28;20483;-72
2023/05/04 02:45:18;;;;;;;23.63;7.00;;;;;;;-144.73;100.00;54276.34;5043166;28;20025;-71
2023/05/04 02:47:44;;;;;;;23.45;7.45;;;;;;;-144.73;100.00;54321.50;5050812;28;20044;-71
2023/05/04 02:50:09;;;;;;;22.38;6.63;;;;;;;-144.73;100.00;54268.13;5050397;28;20021;-71
2023/05/04 02:52:35;;;;;;;24.17;7.43;;;;;;;-144.73;100.00;54327.66;5050110;28;20461;-71
2023/05/04 02:55:02;;;;;;;19.98;7.07;;;;;;;-144.73;100.00;54300.97;5068887;28;20013;-71
2023/05/04 02:57:27;;;;;;;26.55;7.47;;;;;;;-144.73;100.00;54255.81;5051016;28;20067;-71
2023/05/04 02:59:53;;;;;;;26.33;7.55;;;;;;;-144.73;100.00;54311.22;5051551;28;20040;-72
2023/05/04 03:02:18;;;;;;;18.02;6.55;;;;;;;-144.73;100.00;54292.75;5069245;28;20106;-72
2023/05/04 03:04:43;;;;;;;23.95;6.60;;;;;;;-144.73;100.00;54321.50;5050731;28;20041;-72
2023/05/04 03:07:08;;;;;;;14.35;6.70;;;;;;;-144.73;100.00;54288.66;5069154;28;20028;-72
2023/05/04 03:09:34;;;;;;;20.20;6.35;;;;;;;-144.73;100.00;54284.56;5050828;28;20033;-71
2023/05/04 03:12:01;;;;;;;13.10;6.45;;;;;;;-144.73;100.00;54280.44;5051152;28;20032;-71
2023/05/04 03:14:26;;;;;;;21.75;6.75;;;;;;;-144.73;100.00;54288.66;5069243;28;20394;-71
2023/05/04 03:16:52;;;;;;;20.80;6.97;;;;;;;-144.73;100.00;54292.75;5050842;28;20043;-71
2023/05/04 03:19:18;;;;;;;19.27;6.57;;;;;;;-144.73;100.00;54292.75;5069145;28;20078;-71
2023/05/04 03:21:47;;;;;;;23.20;7.15;;;;;;;-144.73;100.00;54243.50;5068498;28;20066;-71
2023/05/04 03:24:13;;;;;;;19.85;7.38;;;;;;;-144.73;100.00;54268.13;5051041;28;20017;-71
2023/05/04 03:26:39;;;;;;;20.05;7.30;;;;;;;-144.73;100.00;54278.41;5051607;28;20124;-71
2023/05/04 03:29:04;;;;;;;20.67;7.13;;;;;;;-144.73;100.00;54305.06;5055222;28;20096;-71
2023/05/04 03:31:30;;;;;;;26.27;7.05;;;;;;;-144.73;100.00;54288.66;5054296;28;20116;-71
2023/05/04 03:33:55;;;;;;;24.00;7.72;;;;;;;-144.73;100.00;54292.75;5071234;28;20060;-71
2023/05/04 03:36:20;;;;;;;22.33;8.15;;;;;;;-144.73;100.00;54276.34;5055125;28;20025;-71
2023/05/04 03:38:46;;;;;;;17.08;6.40;;;;;;;-144.73;100.00;54264.03;5054689;28;20476;-71
2023/05/04 03:41:11;;;;;;;19.60;7.10;;;;;;;-144.73;100.00;54247.59;5072742;28;20036;-70
2023/05/04 03:43:37;;;;;;;17.58;7.28;;;;;;;-144.73;100.00;54298.91;5054533;28;20032;-71
2023/05/04 03:46:02;;;;;;;26.40;7.57;;;;;;;-144.73;100.00;54282.50;5055006;28;20479;-71
2023/05/04 03:48:27;;;;;;;23.05;6.75;;;;;;;-144.73;100.00;54317.38;5054716;28;20039;-71
2023/05/04 03:50:53;;;;;;;17.88;6.68;;;;;;;-144.73;100.00;54259.91;5053639;28;20027;-72
2023/05/04 03:53:18;;;;;;;28.77;7.30;;;;;;;-144.73;100.00;54286.59;5072587;28;20390;-71
2023/05/04 03:55:44;;;;;;;23.98;6.22;;;;;;;-144.73;100.00;54284.56;5054519;28;20103;-71
2023/05/04 03:58:09;;;;;;;19.15;6.22;;;;;;;-144.73;100.00;54311.22;5055218;28;20020;-71
2023/05/04 04:00:34;;;;;;;25.67;7.70;;;;;;;-144.73;100.00;54284.56;5053866;28;20087;-71
2023/05/04 04:03:00;;;;;;;25.20;7.18;;;;;;;-144.73;100.00;54292.75;5071871;28;20040;-71
2023/05/04 04:05:26;;;;;;;18.90;6.22;;;;;;;-144.73;100.00;54305.06;5054447;28;20048;-71
2023/05/04 04:07:51;;;;;;;17.77;6.47;;;;;;;-144.73;100.00;54259.91;5054604;28;20630;-71
2023/05/04 04:10:17;;;;;;;21.33;6.32;;;;;;;-144.73;100.00;54309.19;5054344;28;20108;-71
2023/05/04 04:12:42;;;;;;;17.83;7.32;;;;;;;-144.73;100.00;54298.91;5053972;28;20040;-71
2023/05/04 04:15:08;;;;;;;19.90;7.47;;;;;;;-144.73;100.00;54311.22;5053272;28;20075;-71
2023/05/04 04:17:33;;;;;;;22.58;7.40;;;;;;;-144.73;100.00;54300.97;5053307;28;20041;-71
2023/05/04 04:19:58;;;;;;;19.88;8.00;;;;;;;-144.73;100.00;54247.59;5054315;28;20103;-73
2023/05/04 04:22:25;;;;;;;22.08;7.90;;;;;;;-144.73;100.00;54292.75;5071130;28;20086;-70
2023/05/04 04:24:50;;;;;;;23.83;6.95;;;;;;;-144.73;100.00;54337.91;5052285;28;20025;-71
2023/05/04 04:27:15;;;;;;;27.27;6.78;;;;;;;-144.73;100.00;54284.56;5053420;28;20510;-71
2023/05/04 04:29:41;;;;;;;24.48;7.78;;;;;;;-144.73;100.00;54305.06;5070771;28;20429;-71
2023/05/04 04:32:07;;;;;;;28.40;8.50;;;;;;;-144.73;100.00;54317.38;5071552;28;20041;-70
2023/05/04 04:34:33;;;;;;;23.27;7.32;;;;;;;-144.73;100.00;54321.50;5052947;28;20040;-71
2023/05/04 04:36:58;;;;;;;22.00;7.93;;;;;;;-144.73;100.00;54268.13;5053366;28;20036;-71
2023/05/04 04:39:24;;;;;;;23.15;7.90;;;;;;;-144.73;100.00;54249.66;5070183;28;20031;-72
2023/05/04 04:41:49;;;;;;;15.90;6.53;;;;;;;-144.73;100.00;54290.72;5053132;28;20119;-71
2023/05/04 04:44:14;;;;;;;17.02;6.80;;;;;;;-144.73;100.00;54305.06;5049857;28;20471;-71
2023/05/04 04:46:40;;;;;;;15.80;6.32;;;;;;;-144.73;100.00;54288.66;5053111;28;20039;-72
2023/05/04 04:49:06;;;;;;;21.30;7.03;;;;;;;-144.73;100.00;54276.34;5053449;28;20024;-71
2023/05/04 04:51:31;;;;;;;28.70;7.68;;;;;;;-144.73;100.00;54251.72;5049536;28;20083;-71
2023/05/04 04:53:56;;;;;;;20.85;6.65;;;;;;;-144.73;100.00;54296.88;5071785;28;20028;-71
2023/05/04 04:56:22;;;;;;;24.45;8.07;;;;;;;-144.73;100.00;54315.34;5052513;28;20029;-72
2023/05/04 04:58:47;;;;;;;23.02;6.90;;;;;;;-144.73;100.00;54309.19;5053321;28;20029;-71
2023/05/04 05:01:16;;;;;;;18.42;7.55;;;;;;;-144.73;100.00;54284.56;5053255;28;20024;-71
2023/05/04 05:03:45;;;;;;;22.95;6.88;;;;;;;-144.73;100.00;54296.88;5052474;28;20086;-71
2023/05/04 05:06:12;;;;;;;22.10;6.47;;;;;;;-144.73;100.00;54309.19;5052842;28;20025;-72
2023/05/04 05:08:37;;;;;;;30.88;7.15;;;;;;;-144.73;100.00;54303.03;5053001;28;20060;-72
2023/05/04 05:11:03;;;;;;;18.88;6.18;;;;;;;-144.73;100.00;54296.88;5053011;28;20051;-72
2023/05/04 05:13:31;;;;;;;17.38;6.85;;;;;;;-144.73;100.00;54294.81;5071065;28;20059;-72
2023/05/04 05:15:56;;;;;;;15.45;5.80;;;;;;;-144.73;100.00;54300.97;5052854;28;20066;-72
2023/05/04 05:18:22;;;;;;;17.75;6.60;;;;;;;-144.73;100.00;54317.38;5053344;28;20024;-72
2023/05/04 05:20:48;;;;;;;14.95;5.20;;;;;;;-144.73;100.00;54321.50;5078677;28;20078;-71
2023/05/04 05:23:13;;;;;;;18.58;7.28;;;;;;;-144.73;100.00;54280.44;5081746;28;20025;-72
2023/05/04 05:25:38;;;;;;;26.45;5.95;;;;;;;-144.73;100.00;54296.88;5052775;28;20115;-71
2023/05/04 05:28:04;;;;;;;13.88;5.18;;;;;;;-144.73;100.00;54319.44;5070570;28;20044;-71
2023/05/04 05:30:29;;;;;;;26.83;5.55;;;;;;;-144.73;100.00;54276.34;5052445;28;20116;-71
2023/05/04 05:32:55;;;;;;;14.05;4.70;;;;;;;-144.73;100.00;54284.56;5078353;28;20051;-72
2023/05/04 05:35:20;;;;;;;23.70;5.40;;;;;;;-144.73;100.00;54284.56;5069854;28;20102;-72
2023/05/04 05:37:47;;;;;;;15.00;5.20;;;;;;;-144.73;98.23;54257.88;5066863;28;20040;-71
2023/05/04 05:40:13;;;;;;;11.40;4.30;;;;;;;-144.73;97.46;54300.97;5068554;28;20016;-72
2023/05/04 05:42:38;;;;;;;19.55;4.70;;;;;;;-144.73;96.83;54317.38;5051064;28;20043;-72
2023/05/04 05:45:04;;;;;;;24.95;5.28;;;;;;;-144.73;96.23;54292.75;5069515;28;20016;-72
2023/05/04 05:47:30;;;;;;;23.83;4.93;;;;;;;-144.73;95.34;54276.34;5052277;28;20032;-72
2023/05/04 05:49:55;;;;;;;21.20;4.72;;;;;;;-144.73;94.45;54321.50;5051283;28;20038;-72
2023/05/04 05:52:20;;;;;;;23.48;5.07;;;;;;;-144.73;94.12;54292.75;5051218;28;20033;-72
2023/05/04 05:54:46;;;;;;;25.52;5.93;;;;;;;-144.73;94.20;54292.75;5051449;28;20024;-72
2023/05/04 05:57:11;;;;;;;15.98;4.13;;;;;;;-144.73;93.78;54278.41;5051164;28;20032;-72
2023/05/04 05:59:37;;;;;;;15.88;4.55;;;;;;;-144.73;92.35;54278.41;5067436;28;20475;-72
2023/05/04 06:02:02;;;;;;;22.42;5.22;;;;;;;-144.73;91.85;54354.34;5050846;28;20036;-72
2023/05/04 06:04:28;;;;;;;23.70;5.10;;;;;;;-144.73;90.60;54296.88;5069147;28;20104;-72
2023/05/04 06:06:54;;;;;;;26.52;4.32;;;;;;;-144.73;89.49;54292.75;5069483;28;20032;-71
2023/05/04 06:09:19;;;;;;;22.02;4.10;;;;;;;-144.73;88.81;54284.56;5069118;28;20024;-71
2023/05/04 06:11:45;;;;;;;25.02;4.85;;;;;;;-144.73;87.79;54280.44;5051329;28;20048;-73
2023/05/04 06:14:10;;;;;;;19.27;4.97;;;;;;;-144.73;85.80;54307.13;5067918;28;20026;-71
2023/05/04 06:16:36;;;;;;;24.80;5.43;;;;;;;-144.73;85.61;54305.06;5051386;28;20063;-72
2023/05/04 06:19:02;;;;;;;18.38;3.65;;;;;;;-144.73;83.38;54329.72;5047462;28;20107;-72
2023/05/04 06:21:27;;;;;;;17.13;4.35;;;;;;;-144.73;81.58;54319.44;5048570;28;20028;-72
2023/05/04 06:23:52;;;;;;;14.98;3.58;;;;;;;-144.73;79.89;54292.75;5053444;28;20032;-72
2023/05/04 06:26:19;;;;;;;20.05;3.33;;;;;;;-144.73;79.91;54284.56;5079291;28;20036;-72
2023/05/04 06:28:44;;;;;;;17.30;3.97;;;;;;;-144.73;79.07;54317.38;5069020;28;20037;-72
2023/05/04 06:31:09;;;;;;;15.45;3.90;;;;;;;-144.73;79.62;54296.88;5069044;28;20108;-72
2023/05/04 06:33:35;;;;;;;12.10;3.35;;;;;;;-144.73;77.76;54243.50;5051568;28;20440;-72
2023/05/04 06:36:00;;;;;;;18.00;3.13;;;;;;;-144.73;77.91;54292.75;5068853;28;24610;-72
2023/05/04 06:38:26;;;;;;;18.35;3.75;;;;;;;-144.73;78.03;54305.06;5051608;28;20025;-72
2023/05/04 06:40:51;;;;;;;13.23;3.40;;;;;;;-144.73;77.21;54276.34;5051042;28;20492;-72
2023/05/04 06:43:16;;;;;;;16.38;3.63;;;;;;;-144.73;76.08;54251.72;5052013;28;20032;-72
2023/05/04 06:45:42;;;;;;;14.48;3.33;;;;;;;-144.73;75.99;54305.06;5050579;28;20060;-72
2023/05/04 06:48:07;;;;;;;13.90;3.72;;;;;;;-144.73;75.73;54323.53;5051918;28;20034;-73
2023/05/04 06:50:34;;;;;;;13.98;2.83;;;;;;;-144.73;73.75;54288.66;5051274;28;20379;-72
2023/05/04 06:53:06;;;;;;;9.05;3.22;;;;;;;-144.73;74.61;54276.34;5047845;28;20041;-73
2023/05/04 06:55:31;;;;;;;19.17;2.90;;;;;;;-144.73;73.55;54311.22;5051282;28;20020;-73
2023/05/04 06:57:57;;;;;;;6.93;2.40;;;;;;;-144.73;72.52;54305.06;5051404;28;20063;-73
2023/05/04 07:00:22;;;;;;;20.95;2.88;;;;;;;-144.73;71.10;54284.56;5046818;28;20116;-72
2023/05/04 07:02:48;;;;;;;12.13;3.30;;;;;;;-144.73;70.27;54296.88;5043065;28;20041;-73
2023/05/04 07:05:13;;;;;;;19.42;3.78;;;;;;;-144.73;70.55;54284.56;5059761;28;20090;-72
2023/05/04 07:07:39;;;;;;;10.50;3.10;;;;;;;-144.73;70.65;54259.91;5046693;28;20040;-73
2023/05/04 07:10:05;;;;;;;19.45;3.88;;;;;;;-144.73;70.53;54231.19;5064922;28;20021;-73
2023/05/04 07:12:30;;;;;;;15.52;4.75;;;;;;;-144.73;69.54;54280.44;5046568;28;20517;-73
2023/05/04 07:14:56;;;;;;;13.27;3.17;;;;;;;-144.73;69.72;54284.56;5076138;28;20039;-73
2023/05/04 07:17:24;;;;;;;13.98;2.60;;;;;;;-144.73;69.32;54288.66;5046810;28;20391;-73
2023/05/04 07:19:51;;;;;;;9.20;3.00;;;;;;;-144.73;71.09;54300.97;5059907;28;20088;-72
2023/05/04 07:22:16;;;;;;;15.13;3.35;;;;;;;-144.73;71.58;54282.50;5052948;28;20035;-73
2023/05/04 07:24:42;;;;;;;19.50;3.47;;;;;;;-144.73;71.51;54296.88;5051916;28;20028;-73
2023/05/04 07:27:07;;;;;;;14.00;2.47;;;;;;;-144.73;71.44;54259.91;5070650;28;20033;-72
2023/05/04 07:29:32;;;;;;;11.77;2.70;;;;;;;-144.73;69.11;54288.66;5052656;28;20016;-72
2023/05/04 07:31:58;;;;;;;18.55;3.40;;;;;;;-144.73;69.31;54241.44;5062601;28;20036;-73
2023/05/04 07:34:23;;;;;;;15.43;3.08;;;;;;;-144.73;68.40;54284.56;5047300;28;20016;-72
2023/05/04 07:36:48;;;;;;;9.40;2.78;;;;;;;-144.73;67.66;54280.44;5064259;28;20071;-73
2023/05/04 07:39:15;;;;;;;20.48;3.90;;;;;;;-144.73;66.86;54243.50;5046394;28;20008;-73
2023/05/04 07:41:41;;;;;;;16.55;2.97;;;;;;;-144.73;67.82;54284.56;5042793;28;20032;-73
2023/05/04 07:44:07;;;;;;;15.82;3.08;;;;;;;-144.73;67.12;54243.50;5048647;28;20088;-74
2023/05/04 07:46:33;;;;;;;13.45;2.95;;;;;;;-144.73;67.32;54288.66;5054207;28;20033;-73
2023/05/04 07:48:58;;;;;;;14.43;3.45;;;;;;;-144.73;66.66;54251.72;5049618;28;20035;-73
2023/05/04 07:51:24;;;;;;;13.82;2.83;;;;;;;-144.73;66.15;54288.66;5064768;28;20575;-73
2023/05/04 07:53:49;;;;;;;14.13;2.80;;;;;;;-144.73;64.99;54286.59;5067955;28;20102;-73
2023/05/04 07:56:14;;;;;;;14.93;3.22;;;;;;;-144.73;63.77;54342.03;5037460;28;20032;-73
2023/05/04 07:58:40;;;;;;;10.52;3.10;;;;;;;-144.73;65.95;54276.34;5053958;28;20020;-73
2023/05/04 08:01:06;;;;;;;14.80;2.90;;;;;;;-144.73;66.14;54280.44;5048012;28;20066;-73
2023/05/04 08:03:31;;;;;;;10.70;2.67;;;;;;;-144.73;65.75;54292.75;5047727;28;20037;-72
2023/05/04 08:05:57;;;;;;;16.27;4.45;;;;;;;-144.73;64.46;54288.66;5046402;28;20051;-73
2023/05/04 08:08:22;;;;;;;12.85;2.67;;;;;;;-144.73;64.58;54313.28;5065033;28;20055;-73
2023/05/04 08:10:48;;;;;;;19.13;3.58;;;;;;;-144.73;62.51;54284.56;5074877;28;20028;-72
2023/05/04 08:13:13;;;;;;;22.40;3.80;;;;;;;-144.73;62.46;54247.59;5046421;28;20024;-73
2023/05/04 08:15:38;;;;;;;12.23;2.58;;;;;;;-144.73;63.16;54276.34;5045094;28;20055;-71
2023/05/04 08:18:05;;;;;;;12.68;2.42;;;;;;;-144.73;61.47;54255.81;5047047;28;20028;-71
2023/05/04 08:20:30;;;;;;;7.05;2.58;;;;;;;-144.73;61.22;54239.41;5047574;28;20104;-71
2023/05/04 08:22:56;;;;;;;15.20;3.28;;;;;;;-144.73;60.95;54231.19;5064017;28;20587;-71
2023/05/04 08:25:21;;;;;;;27.23;3.78;;;;;;;-144.73;60.92;54235.28;5051559;28;20103;-71
2023/05/04 08:27:47;;;;;;;17.38;2.97;;;;;;;-144.73;59.07;54251.72;5042349;28;20123;-71
2023/05/04 08:30:13;;;;;;;23.40;3.22;;;;;;;-144.73;59.54;54276.34;5049193;28;20112;-72
2023/05/04 08:32:38;;;;;;;19.35;3.63;;;;;;;-144.73;58.09;54198.34;5077424;28;20041;-72
2023/05/04 08:35:04;;;;;;;30.52;3.72;;;;;;;-144.73;57.94;54249.66;5051080;28;20020;-72
2023/05/04 08:37:30;;;;;;;11.93;2.20;;;;;;;-144.73;57.71;54305.06;5039011;28;20421;-72
2023/05/04 08:39:55;;;;;;;8.90;2.85;;;;;;;-144.73;57.48;54235.28;5072001;28;20024;-72
2023/05/04 08:42:31;;;;;;;15.98;2.95;;;;;;;-144.73;57.93;54243.50;5066510;28;20092;-72
2023/05/04 08:44:57;;;;;;;22.83;3.10;;;;;;;-144.73;57.13;54278.41;5039887;28;20036;-72
2023/05/04 08:47:27;;;;;;;9.57;2.47;;;;;;;-144.73;57.40;54280.44;5050473;28;20040;-72
2023/05/04 08:49:53;;;;;;;16.67;3.00;;;;;;;-144.73;57.24;54243.50;5061642;28;20031;-72
2023/05/04 08:52:22;;;;;;;9.10;2.83;;;;;;;-144.73;57.21;54264.03;5046562;28;20838;-72
2023/05/04 08:54:50;;;;;;;12.30;2.72;;;;;;;-144.73;57.97;54276.34;5077610;28;20073;-72
2023/05/04 08:57:16;;;;;;;12.50;3.00;;;;;;;-144.73;57.38;54280.44;5046278;28;20040;-72
2023/05/04 08:59:43;;;;;;;15.27;2.40;;;;;;;-144.73;56.84;54239.41;5046855;28;20083;-72
2023/05/04 09:02:12;;;;;;;10.07;2.45;;;;;;;-144.73;56.32;54225.03;5045856;28;20051;-72
2023/05/04 09:04:37;;;;;;;20.20;3.13;;;;;;;-144.73;55.50;54259.91;5064724;28;20024;-72
2023/05/04 09:07:03;;;;;;;26.40;3.40;;;;;;;-144.73;56.45;54251.72;5057232;28;20037;-72
2023/05/04 09:09:30;;;;;;;13.57;3.60;;;;;;;-144.73;56.37;54210.66;5070674;28;20089;-72
2023/05/04 09:11:55;;;;;;;18.05;3.38;;;;;;;-144.73;55.14;54284.56;5075332;28;20044;-72
2023/05/04 09:14:21;;;;;;;10.38;2.22;;;;;;;-144.73;54.54;54255.81;5063740;28;20543;-72
2023/05/04 09:16:46;;;;;;;12.57;3.20;;;;;;;-144.73;54.20;54276.34;5045508;28;20037;-72
2023/05/04 09:19:17;;;;;;;11.65;2.28;;;;;;;-144.73;52.76;54206.56;5062810;28;20132;-73
2023/05/04 09:21:43;;;;;;;12.82;2.78;;;;;;;-144.73;53.07;54239.41;5042477;28;20037;-73
2023/05/04 09:24:09;;;;;;;17.20;2.33;;;;;;;-144.73;52.48;54206.56;5041978;28;20024;-73
2023/05/04 09:26:34;;;;;;;14.10;2.97;;;;;;;-144.73;53.72;54218.88;5061505;28;20041;-72
2023/05/04 09:29:12;;;;;;;15.48;2.70;;;;;;;-144.73;52.00;54276.34;5046211;28;20029;-72
2023/05/04 09:31:49;;;;;;;14.38;2.22;;;;;;;-144.73;52.04;54210.66;5060865;28;20039;-72
2023/05/04 09:34:15;;;;;;;12.70;3.13;;;;;;;-144.73;50.67;54282.50;5062811;28;20443;-73
2023/05/04 09:36:41;;;;;;;16.90;3.53;;;;;;;-144.73;51.62;54225.03;5044742;28;20036;-73
2023/05/04 09:39:14;;;;;;;12.35;2.72;;;;;;;-144.73;51.46;54251.72;5046760;28;20086;-72
2023/05/04 09:41:41;;;;;;;18.30;3.17;;;;;;;-144.73;51.34;54231.19;5045726;28;20032;-73
2023/05/04 09:44:21;;;;;;;13.70;2.83;;;;;;;-144.73;49.87;54243.50;5064128;28;20020;-73
2023/05/04 09:46:56;;;;;;;17.08;2.85;;;;;;;-144.73;49.90;54227.09;5056781;28;20040;-73
2023/05/04 09:49:34;;;;;;;14.88;2.85;;;;;;;-144.73;51.25;54257.88;5060670;28;20025;-73
2023/05/04 09:52:01;;;;;;;8.43;2.30;;;;;;;-144.73;50.67;54247.59;5042515;28;20041;-73
2023/05/04 09:54:31;;;;;;;10.43;2.35;;;;;;;-144.73;50.73;54235.28;5048432;28;20416;-73
2023/05/04 09:57:09;;;;;;;10.07;3.13;;;;;;;-144.73;49.43;54259.91;5045011;28;20088;-73
2023/05/04 09:59:35;;;;;;;12.82;3.45;;;;;;;-144.73;48.51;54239.41;5045388;28;20377;-73
2023/05/04 10:02:00;;;;;;;13.65;3.78;;;;;;;-144.73;48.39;54222.97;5044481;28;20036;-73
2023/05/04 10:04:26;;;;;;;11.23;3.15;;;;;;;-144.73;47.95;54231.19;5045284;28;20032;-73
2023/05/04 10:06:53;;;;;;;11.82;3.22;;;;;;;-144.73;48.33;54227.09;5057388;28;20036;-73
2023/05/04 10:09:20;;;;;;;7.60;2.47;;;;;;;-144.73;48.41;54239.41;5044759;28;20084;-73
2023/05/04 10:11:45;;;;;;;14.35;2.63;;;;;;;-144.73;48.17;54251.72;5066259;28;20044;-73
2023/05/04 10:14:12;;;;;;;8.55;2.50;;;;;;;-144.73;47.98;54276.34;5038089;28;20057;-73
2023/05/04 10:16:55;;;;;;;13.38;3.13;;;;;;;-144.73;49.32;54247.59;5045878;28;20041;-74
2023/05/04 10:19:37;;;;;;;14.35;2.55;;;;;;;-144.73;47.58;54243.50;5065647;28;20045;-72
2023/05/04 10:22:32;;;;;;;17.13;2.60;;;;;;;-144.73;48.12;54296.88;5074781;28;20029;-72
2023/05/04 10:25:19;;;;;;;12.20;2.55;;;;;;;-144.73;48.40;54210.66;5033416;28;20119;-72
2023/05/04 10:27:53;;;;;;;10.20;2.65;;;;;;;-144.73;48.21;54198.34;5039504;28;20041;-72
2023/05/04 10:30:20;;;;;;;17.17;3.60;;;;;;;-144.73;47.89;54202.44;5060461;28;20052;-72
2023/05/04 10:32:54;;;;;;;9.77;3.15;;;;;;;-144.73;46.43;54243.50;5039267;28;20040;-72
2023/05/04 10:35:20;;;;;;;10.52;2.67;;;;;;;-144.73;46.74;54214.78;5062622;28;20028;-73
2023/05/04 10:37:53;;;;;;;10.50;3.13;;;;;;;-144.73;45.92;54247.59;5059315;28;20072;-73
2023/05/04 10:40:39;;;;;;;17.85;3.50;;;;;;;-144.73;45.62;54243.50;5036477;28;20033;-72
2023/05/04 10:43:06;;;;;;;12.15;2.80;;;;;;;-144.73;45.78;54280.44;5059300;28;20094;-72
2023/05/04 10:45:35;;;;;;;13.57;3.85;;;;;;;-144.73;44.47;54210.66;5054932;28;20024;-73
2023/05/04 10:48:01;;;;;;;14.82;3.05;;;;;;;-144.73;43.15;54194.25;5058693;28;20082;-72
2023/05/04 10:50:26;;;;;;;13.85;2.47;;;;;;;-144.73;42.34;54247.59;5039717;28;20021;-73
2023/05/04 10:52:52;;;;;;;21.02;3.67;;;;;;;-144.73;41.49;54222.97;5056605;28;20098;-73
2023/05/04 10:55:19;;;;;;;11.32;2.42;;;;;;;-144.73;40.83;54247.59;5044583;28;20428;-73
2023/05/04 10:57:55;;;;;;;12.43;2.92;;;;;;;-144.73;42.39;54251.72;5040679;28;20032;-73
2023/05/04 11:00:23;;;;;;;11.85;2.60;;;;;;;-144.73;42.59;54202.44;5058757;28;20020;-72
2023/05/04 11:02:48;;;;;;;16.67;3.38;;;;;;;-144.73;42.56;54227.09;5038361;28;20048;-73
2023/05/04 11:05:19;;;;;;;13.73;3.63;;;;;;;-144.73;41.80;54247.59;5039404;28;20029;-72
2023/05/04 11:07:46;;;;;;;11.18;2.67;;;;;;;-144.73;41.27;54222.97;5041633;28;20411;-74